Lemmon Valley, Nevada
Current Conditions -  °F | °C
As of 2:15 AM on Saturday 20 Dec 2014 (Local Time) from KRTS Reporting Station
Broken Clouds Broken Clouds  
Wind Chill: 41°   Ceiling: 5000
Heat Index: 41°   Visibility: 10mi
Dew Point: 32°   Wind: 3mph
Humidity: 70%   Direction: 210°SSW
Pressure: 30.07"   Gusts: NA
Location:  39.7378°N, 119.889°W
Report Text: KRTS 201015Z AUTO 21003KT 10SM SCT042 BKN050 05/00 A3007 RMK AO2
Loading
Personal Weather Stations






























Interactive Weather Map New forecast layout! Learn more

10-Day Weather Forecast

Advertisements
Track Severe Weather on mobile